Time;durP1;ratioP1;P1;durP2;ratioP2;P2;SDS_P1;SDS_P2;PMS_P1;PMS_P2;Temp;Humidity;BMP_temperature;BMP_pressure;BME280_temperature;BME280_humidity;BME280_pressure;Samples;Min_cycle;Max_cycle;Signal;HPM_P1;HPM_P2
2021/01/26 00:01:28;;;;;;;36.67;11.90;;;;;;;0.51;100.00;100016.09;5031686;28;20029;-67
2021/01/26 00:03:54;;;;;;;36.83;12.63;;;;;;;0.51;100.00;100016.09;5028970;28;20033;-70
2021/01/26 00:06:19;;;;;;;34.77;11.73;;;;;;;0.51;100.00;100001.53;5031609;28;20100;-68
2021/01/26 00:08:45;;;;;;;36.13;12.37;;;;;;;0.55;100.00;100002.47;5018905;28;20111;-67
2021/01/26 00:11:11;;;;;;;39.97;12.93;;;;;;;0.54;100.00;100001.59;5032592;28;20052;-67
2021/01/26 00:13:36;;;;;;;38.60;13.37;;;;;;;0.57;100.00;99993.97;5031056;28;20033;-68
2021/01/26 00:16:03;;;;;;;41.00;12.90;;;;;;;0.60;100.00;99995.75;5032794;28;20120;-68
2021/01/26 00:18:29;;;;;;;39.27;13.43;;;;;;;0.59;100.00;99989.75;5028180;28;20019;-67
2021/01/26 00:20:54;;;;;;;35.53;11.93;;;;;;;0.64;100.00;99991.59;5026570;28;20654;-68
2021/01/26 00:23:20;;;;;;;34.07;12.83;;;;;;;0.59;100.00;99984.59;5033060;28;20079;-67
2021/01/26 00:25:46;;;;;;;35.20;11.83;;;;;;;0.61;100.00;99987.25;5031189;28;20108;-67
2021/01/26 00:28:13;;;;;;;34.47;12.27;;;;;;;0.62;100.00;99982.97;5022279;28;20056;-67
2021/01/26 00:30:41;;;;;;;32.87;12.40;;;;;;;0.64;100.00;99981.31;5032468;28;20033;-68
2021/01/26 00:33:10;;;;;;;36.80;12.30;;;;;;;0.61;100.00;99976.06;5031445;28;20671;-67
2021/01/26 00:35:37;;;;;;;37.80;13.23;;;;;;;0.65;100.00;99978.78;5013431;28;20265;-67
2021/01/26 00:38:03;;;;;;;33.77;13.73;;;;;;;0.67;100.00;99971.09;5019953;28;20288;-67
2021/01/26 00:40:29;;;;;;;40.70;11.97;;;;;;;0.63;100.00;99974.44;5032089;28;20841;-67
2021/01/26 00:42:56;;;;;;;34.50;11.67;;;;;;;0.52;100.00;99977.56;5029965;28;20307;-68
2021/01/26 00:45:24;;;;;;;33.50;10.80;;;;;;;0.37;100.00;99977.09;5031058;28;20759;-66
2021/01/26 00:47:50;;;;;;;27.73;10.07;;;;;;;0.32;100.00;99976.06;5027421;28;20272;-67
2021/01/26 00:50:16;;;;;;;31.60;11.53;;;;;;;0.24;100.00;99975.84;5020194;28;20272;-67
2021/01/26 00:52:42;;;;;;;34.67;12.13;;;;;;;0.18;100.00;99974.78;5031053;28;20416;-68
2021/01/26 00:55:08;;;;;;;29.93;11.03;;;;;;;0.15;100.00;99977.25;5029536;28;20283;-67
2021/01/26 00:57:34;;;;;;;29.37;11.43;;;;;;;0.12;100.00;99974.56;5031029;28;20026;-67
2021/01/26 00:59:59;;;;;;;32.77;12.73;;;;;;;0.08;100.00;99972.75;5030323;28;20276;-67
2021/01/26 01:02:25;;;;;;;31.47;11.90;;;;;;;0.04;100.00;99976.03;5031800;28;20714;-67
2021/01/26 01:04:50;;;;;;;41.73;16.10;;;;;;;0.01;100.00;99974.25;5031335;28;20033;-67
2021/01/26 01:07:17;;;;;;;39.23;11.70;;;;;;;0.01;100.00;99970.81;5030100;28;20028;-68
2021/01/26 01:09:44;;;;;;;41.67;12.97;;;;;;;-0.02;100.00;99972.44;5027559;28;20021;-68
2021/01/26 01:12:09;;;;;;;31.40;10.87;;;;;;;-0.01;100.00;99966.47;5012360;28;20748;-68
2021/01/26 01:14:37;;;;;;;34.13;12.20;;;;;;;-0.01;100.00;99953.63;5023518;28;20341;-67
2021/01/26 01:17:03;;;;;;;32.00;11.30;;;;;;;-0.02;100.00;99951.88;5031000;28;20017;-68
2021/01/26 01:19:28;;;;;;;38.10;11.73;;;;;;;0.03;100.00;99953.75;5029287;28;20284;-68
2021/01/26 01:21:53;;;;;;;34.73;11.10;;;;;;;0.03;100.00;99953.75;5011863;28;20029;-70
2021/01/26 01:24:19;;;;;;;33.07;10.73;;;;;;;0.06;100.00;99954.69;5021438;28;20029;-70
2021/01/26 01:26:44;;;;;;;36.03;12.17;;;;;;;0.04;100.00;99956.34;5030684;28;20075;-70
2021/01/26 01:29:12;;;;;;;34.90;11.87;;;;;;;0.06;100.00;99956.41;5023507;28;20021;-70
2021/01/26 01:31:37;;;;;;;33.33;12.33;;;;;;;0.05;100.00;99950.38;5024959;28;20025;-70
2021/01/26 01:34:06;;;;;;;37.43;12.57;;;;;;;0.07;100.00;99955.56;5031917;28;20279;-70
2021/01/26 01:36:32;;;;;;;39.47;12.90;;;;;;;0.04;100.00;99951.22;5016052;28;20030;-70
2021/01/26 01:38:58;;;;;;;35.03;11.87;;;;;;;0.11;100.00;99954.84;5031433;28;20330;-71
2021/01/26 01:41:29;;;;;;;41.03;14.30;;;;;;;0.06;100.00;99962.41;5031739;28;20640;-68
2021/01/26 01:43:55;;;;;;;38.50;11.95;;;;;;;0.07;100.00;99958.16;5027802;28;20032;-71
2021/01/26 01:46:22;;;;;;;37.43;12.83;;;;;;;0.08;100.00;99963.31;5031341;28;20038;-68
2021/01/26 01:48:48;;;;;;;39.93;13.53;;;;;;;0.08;100.00;99962.47;5031093;28;20052;-69
2021/01/26 01:51:20;;;;;;;39.50;12.83;;;;;;;0.06;100.00;99957.28;5030968;28;20648;-69
2021/01/26 01:53:50;;;;;;;34.23;12.23;;;;;;;0.09;100.00;99969.34;5031058;28;20313;-69
2021/01/26 01:56:20;;;;;;;39.63;15.00;;;;;;;0.10;100.00;99965.94;5030243;28;20291;-69
2021/01/26 01:58:51;;;;;;;37.43;12.23;;;;;;;0.11;100.00;99967.69;5030424;28;20288;-68
2021/01/26 02:01:19;;;;;;;43.23;12.20;;;;;;;0.12;100.00;99959.16;5024838;28;20296;-68
2021/01/26 02:03:51;;;;;;;40.97;12.63;;;;;;;0.11;100.00;99962.53;5028657;28;20663;-69
2021/01/26 02:06:17;;;;;;;;;;;;;;;0.11;100.00;99962.53;5029357;28;20279;-68
2021/01/26 02:09:03;;;;;;;36.93;12.07;;;;;;;0.11;100.00;99959.97;5029887;28;19913;-69
2021/01/26 02:11:29;;;;;;;48.00;12.80;;;;;;;0.11;100.00;99965.13;5029194;28;20280;-68
2021/01/26 02:13:54;;;;;;;44.90;13.57;;;;;;;0.10;100.00;99965.94;5029332;28;20271;-68
2021/01/26 02:16:29;;;;;;;46.40;13.37;;;;;;;0.10;100.00;99961.66;5028312;28;20029;-69
2021/01/26 02:19:06;;;;;;;43.50;13.03;;;;;;;0.08;100.00;99962.47;5030484;28;20034;-69
2021/01/26 02:21:56;;;;;;;46.33;13.63;;;;;;;0.18;100.00;99969.63;5029177;28;20378;-68
2021/01/26 02:24:33;;;;;;;47.77;13.60;;;;;;;0.22;100.00;99979.19;5028423;28;20284;-68
2021/01/26 02:27:22;;;;;;;50.77;14.57;;;;;;;0.22;100.00;99982.63;5014512;28;20291;-68
2021/01/26 02:30:06;;;;;;;54.67;14.93;;;;;;;0.21;100.00;99974.88;5014279;28;20790;-68
2021/01/26 02:33:00;;;;;;;50.03;14.10;;;;;;;0.21;100.00;99978.31;5029242;28;20288;-68
2021/01/26 02:35:48;;;;;;;42.80;13.67;;;;;;;0.16;100.00;99981.56;5019524;28;20284;-69
2021/01/26 02:38:25;;;;;;;46.53;12.30;;;;;;;0.16;100.00;99981.56;5030500;28;20283;-68
2021/01/26 02:40:55;;;;;;;43.60;13.93;;;;;;;0.19;100.00;99987.66;5028002;28;20296;-68
2021/01/26 02:43:34;;;;;;;46.30;14.43;;;;;;;0.17;100.00;99984.19;5028811;28;20280;-68
2021/01/26 02:46:27;;;;;;;44.53;12.83;;;;;;;0.21;100.00;99995.44;5029078;28;20310;-68
2021/01/26 02:49:02;;;;;;;43.10;13.60;;;;;;;0.21;100.00;99998.88;5030346;28;20280;-68
2021/01/26 02:51:56;;;;;;;48.73;13.50;;;;;;;0.15;100.00;99996.13;5025632;28;20052;-68
2021/01/26 02:54:34;;;;;;;39.87;14.27;;;;;;;0.22;100.00;100002.31;5028292;28;20283;-68
2021/01/26 02:57:13;;;;;;;55.33;15.03;;;;;;;0.21;100.00;100004.00;5028598;28;20322;-67
2021/01/26 02:59:53;;;;;;;45.40;13.97;;;;;;;0.20;100.00;100003.97;5029460;28;20288;-67
2021/01/26 03:02:27;;;;;;;57.67;14.53;;;;;;;0.16;100.00;100012.41;5016432;28;20283;-67
2021/01/26 03:05:08;;;;;;;48.00;13.93;;;;;;;0.24;100.00;100011.84;5018376;28;20338;-68
2021/01/26 03:07:39;;;;;;;53.37;14.10;;;;;;;0.23;100.00;100009.19;5025895;28;20299;-68
2021/01/26 03:10:12;;;;;;;51.23;13.47;;;;;;;0.22;100.00;100010.03;5029696;28;20390;-67
2021/01/26 03:12:41;;;;;;;47.00;13.63;;;;;;;0.21;100.00;100021.13;5024779;28;20346;-67
2021/01/26 03:15:19;;;;;;;49.70;15.57;;;;;;;0.22;100.00;100025.44;5028066;28;20291;-68
2021/01/26 03:17:55;;;;;;;44.47;14.83;;;;;;;0.23;100.00;100024.63;5029736;28;20359;-68
2021/01/26 03:20:50;;;;;;;61.93;16.10;;;;;;;0.21;100.00;100026.28;5028028;28;20791;-68
2021/01/26 03:23:36;;;;;;;58.73;14.73;;;;;;;0.24;100.00;100036.66;5028273;28;20365;-67
2021/01/26 03:26:04;;;;;;;55.33;13.57;;;;;;;0.24;100.00;100039.22;5027029;28;20302;-67
2021/01/26 03:28:29;;;;;;;54.17;14.30;;;;;;;0.25;100.00;100038.41;5028600;28;20272;-68
2021/01/26 03:30:59;;;;;;;58.27;14.07;;;;;;;0.24;100.00;100041.78;5028205;28;20362;-68
2021/01/26 03:33:39;;;;;;;52.50;14.67;;;;;;;0.24;100.00;100046.94;5029638;28;20124;-68
2021/01/26 03:36:05;;;;;;;47.80;14.57;;;;;;;0.25;100.00;100053.84;5025508;28;20337;-67
2021/01/26 03:38:33;;;;;;;60.10;15.00;;;;;;;0.27;100.00;100057.34;5027299;28;20671;-69
2021/01/26 03:41:01;;;;;;;53.13;14.33;;;;;;;0.25;100.00;100053.84;5029584;28;20040;-70
2021/01/26 03:43:26;;;;;;;68.00;15.67;;;;;;;0.28;100.00;100059.06;5029250;28;20809;-67
2021/01/26 03:46:01;;;;;;;57.97;15.27;;;;;;;0.29;100.00;100065.97;5021798;28;20292;-67
2021/01/26 03:48:40;;;;;;;62.63;15.60;;;;;;;0.28;100.00;100071.94;5029039;28;20049;-68
2021/01/26 03:51:41;;;;;;;55.07;15.30;;;;;;;0.31;100.00;100074.59;5025401;28;20291;-68
2021/01/26 03:54:29;;;;;;;54.37;15.97;;;;;;;0.32;100.00;100076.34;5026918;28;20759;-67
2021/01/26 03:57:27;;;;;;;62.30;16.67;;;;;;;0.33;100.00;100083.22;5028868;28;20283;-68
2021/01/26 04:00:09;;;;;;;59.17;15.73;;;;;;;0.34;100.00;100095.25;5021690;28;20708;-68
2021/01/26 04:02:52;;;;;;;64.25;15.75;;;;;;;0.35;100.00;100097.00;5028694;28;20295;-69
2021/01/26 04:05:26;;;;;;;66.00;15.10;;;;;;;0.34;100.00;100102.09;5019413;28;20289;-67
2021/01/26 04:08:00;;;;;;;64.20;15.83;;;;;;;0.34;100.00;100104.66;5024434;28;20644;-68
2021/01/26 04:10:29;;;;;;;57.53;15.77;;;;;;;0.34;100.00;100110.69;5029262;28;20304;-68
2021/01/26 04:13:01;;;;;;;67.10;17.73;;;;;;;0.38;100.00;100114.25;5027790;28;20280;-68
2021/01/26 04:15:37;;;;;;;71.30;18.25;;;;;;;0.38;100.00;100127.97;5020699;28;20279;-67
2021/01/26 04:18:06;;;;;;;61.17;15.90;;;;;;;0.38;100.00;100130.56;5027903;28;20087;-67
2021/01/26 04:20:36;;;;;;;70.23;16.50;;;;;;;0.37;100.00;100130.50;5028988;28;20312;-68
2021/01/26 04:23:02;;;;;;;63.23;16.50;;;;;;;0.37;100.00;100145.94;5028259;28;20639;-68
2021/01/26 04:25:35;;;;;;;61.50;15.17;;;;;;;0.35;100.00;100148.41;5019526;28;20760;-68
2021/01/26 04:28:05;;;;;;;68.50;15.47;;;;;;;0.35;100.00;100148.41;5028857;28;20363;-67
2021/01/26 04:30:31;;;;;;;68.90;17.77;;;;;;;0.32;100.00;100150.91;5029853;28;20298;-70
2021/01/26 04:33:01;;;;;;;78.00;17.20;;;;;;;0.40;100.00;100162.31;5031837;28;20367;-67
2021/01/26 04:35:26;;;;;;;68.57;17.53;;;;;;;0.38;100.00;100157.97;5030074;28;20049;-68
2021/01/26 04:37:54;;;;;;;74.83;17.53;;;;;;;0.42;100.00;100165.81;5031393;28;20299;-68
2021/01/26 04:40:20;;;;;;;75.13;17.97;;;;;;;0.43;100.00;100172.72;5031737;28;20500;-67
2021/01/26 04:42:48;;;;;;;84.07;16.97;;;;;;;0.42;100.00;100176.09;5030995;28;20275;-68
2021/01/26 04:45:29;;;;;;;70.50;17.43;;;;;;;0.42;100.00;100176.09;5031289;28;20856;-67
2021/01/26 04:48:13;;;;;;;72.00;16.53;;;;;;;0.41;100.00;100189.78;5024846;28;20287;-69
2021/01/26 04:51:08;;;;;;;62.27;16.00;;;;;;;0.43;100.00;100195.84;5031161;28;20288;-69
2021/01/26 04:53:45;;;;;;;66.50;16.37;;;;;;;0.45;100.00;100201.03;5031327;28;20295;-68
2021/01/26 04:56:33;;;;;;;73.33;17.23;;;;;;;0.45;100.00;100204.50;5031886;28;20836;-68
2021/01/26 04:59:32;;;;;;;85.93;17.70;;;;;;;0.45;100.00;100212.19;5026564;28;20302;-69
2021/01/26 05:02:26;;;;;;;77.43;16.60;;;;;;;0.47;100.00;100219.97;5025565;28;20280;-68
2021/01/26 05:05:10;;;;;;;73.87;16.20;;;;;;;0.43;100.00;100229.28;5031806;28;20272;-68
2021/01/26 05:07:43;;;;;;;83.00;17.20;;;;;;;0.44;100.00;100241.31;5030556;28;20276;-67
2021/01/26 05:10:18;;;;;;;63.13;14.23;;;;;;;0.43;100.00;100249.84;5029805;28;20308;-68
2021/01/26 05:12:53;;;;;;;90.93;16.80;;;;;;;0.44;100.00;100240.44;5031513;28;20267;-68
2021/01/26 05:15:23;;;;;;;75.57;16.10;;;;;;;0.46;100.00;100247.38;5026323;28;20770;-68
2021/01/26 05:17:59;;;;;;;81.17;17.47;;;;;;;0.49;100.00;100251.78;5030790;28;20303;-68
2021/01/26 05:20:35;;;;;;;94.33;17.27;;;;;;;0.50;100.00;100261.25;5022362;28;20292;-67
2021/01/26 05:23:13;;;;;;;68.63;16.13;;;;;;;0.48;100.00;100265.44;5030848;28;20351;-68
2021/01/26 05:25:38;;;;;;;67.03;15.60;;;;;;;0.49;100.00;100283.53;5031389;28;20362;-68
2021/01/26 05:28:04;;;;;;;89.07;17.33;;;;;;;0.50;100.00;100293.00;5030823;28;20362;-67
2021/01/26 05:30:33;;;;;;;76.40;16.47;;;;;;;0.51;100.00;100293.84;5029985;28;20045;-68
2021/01/26 05:33:07;;;;;;;81.00;17.37;;;;;;;0.52;100.00;100301.63;5030404;28;20029;-67
2021/01/26 05:35:33;;;;;;;86.17;19.17;;;;;;;0.54;100.00;100302.56;5028339;28;20297;-68
2021/01/26 05:37:59;;;;;;;104.43;20.57;;;;;;;0.56;100.00;100300.91;5028655;28;20291;-68
2021/01/26 05:40:34;;;;;;;95.13;19.03;;;;;;;0.56;100.00;100308.63;5029771;28;20713;-68
2021/01/26 05:43:02;;;;;;;93.50;19.63;;;;;;;0.57;100.00;100310.38;5022848;28;20091;-68
2021/01/26 05:45:35;;;;;;;88.23;19.23;;;;;;;0.59;100.00;100315.56;5030494;28;20275;-66
2021/01/26 05:48:03;;;;;;;92.83;18.87;;;;;;;0.61;100.00;100323.31;5029656;28;20280;-68
2021/01/26 05:50:31;;;;;;;111.37;20.23;;;;;;;0.59;100.00;100329.28;5030314;28;20292;-69
2021/01/26 05:53:06;;;;;;;104.77;19.03;;;;;;;0.58;100.00;100340.41;5029807;28;20280;-67
2021/01/26 05:55:34;;;;;;;114.43;20.60;;;;;;;0.57;100.00;100351.53;5029989;28;20283;-68
2021/01/26 05:58:09;;;;;;;102.60;19.33;;;;;;;0.57;100.00;100356.66;5028109;28;20287;-68
2021/01/26 06:00:35;;;;;;;86.50;18.77;;;;;;;0.57;100.00;100363.50;5020602;28;20318;-68
2021/01/26 06:03:17;;;;;;;79.70;17.43;;;;;;;0.55;100.00;100363.47;5029959;28;20299;-68
2021/01/26 06:06:02;;;;;;;85.45;17.65;;;;;;;0.57;100.00;100372.09;5029992;28;20279;-68
2021/01/26 06:08:28;;;;;;;98.43;19.43;;;;;;;0.61;100.00;100375.69;5013654;28;20068;-68
2021/01/26 06:10:54;;;;;;;100.77;19.90;;;;;;;0.62;100.00;100379.13;5029431;28;20319;-67
2021/01/26 06:13:29;;;;;;;106.83;20.57;;;;;;;0.64;100.00;100380.94;5028765;28;20291;-68
2021/01/26 06:16:10;;;;;;;100.20;20.83;;;;;;;0.65;100.00;100384.38;5028504;28;20295;-68
2021/01/26 06:18:38;;;;;;;115.17;21.57;;;;;;;0.67;100.00;100390.44;5030070;28;20284;-68
2021/01/26 06:21:12;;;;;;;114.10;22.57;;;;;;;0.67;100.00;100404.19;5030249;28;20698;-67
2021/01/26 06:23:39;;;;;;;95.87;18.70;;;;;;;0.69;100.00;100406.81;5029600;28;20291;-67
2021/01/26 06:26:10;;;;;;;97.20;21.20;;;;;;;0.70;100.00;100413.72;5028769;28;20295;-68
2021/01/26 06:28:41;;;;;;;107.57;21.27;;;;;;;0.70;100.00;100413.72;5028544;28;20283;-67
2021/01/26 06:31:31;;;;;;;112.93;20.50;;;;;;;0.70;100.00;100424.00;5029019;28;20519;-68
2021/01/26 06:34:03;;;;;;;96.87;19.33;;;;;;;0.70;100.00;100424.88;5029521;28;20343;-68
2021/01/26 06:36:52;;;;;;;90.03;17.10;;;;;;;0.71;100.00;100436.03;5029514;28;20275;-68
2021/01/26 06:40:06;;;;;;;109.03;20.90;;;;;;;0.75;100.00;100443.06;5029270;28;20327;-67
2021/01/26 06:42:53;;;;;;;91.07;19.17;;;;;;;0.76;100.00;100442.25;5023606;28;20359;-67
2021/01/26 06:45:34;;;;;;;95.60;22.03;;;;;;;0.77;100.00;100452.59;5017908;28;20574;-67
2021/01/26 06:48:36;;;;;;;101.07;19.63;;;;;;;0.78;100.00;100461.19;5022570;28;20350;-68
2021/01/26 06:51:19;;;;;;;103.43;20.83;;;;;;;0.77;100.00;100467.16;5013536;28;20289;-67
2021/01/26 06:53:51;;;;;;;110.27;20.27;;;;;;;0.77;100.00;100472.31;5020092;28;20029;-69
2021/01/26 06:56:41;;;;;;;96.77;20.10;;;;;;;0.77;100.00;100477.44;5018611;28;20276;-70
2021/01/26 06:59:09;;;;;;;99.87;20.40;;;;;;;0.77;100.00;100477.44;5015731;28;20346;-68
2021/01/26 07:01:56;;;;;;;117.13;21.33;;;;;;;0.80;100.00;100477.56;5019282;28;20292;-67
2021/01/26 07:04:37;;;;;;;121.83;23.23;;;;;;;0.81;100.00;100480.19;5012196;28;20274;-65
2021/01/26 07:07:08;;;;;;;125.13;23.63;;;;;;;0.82;100.00;100481.94;5022764;28;20276;-67
2021/01/26 07:09:53;;;;;;;119.57;22.17;;;;;;;0.82;100.00;100486.22;5029130;28;20272;-67
2021/01/26 07:12:57;;;;;;;121.87;22.80;;;;;;;0.80;100.00;100493.00;5010215;28;20272;-67
2021/01/26 07:15:37;;;;;;;136.37;25.37;;;;;;;0.83;100.00;100500.81;5025401;28;20814;-68
2021/01/26 07:18:30;;;;;;;139.27;25.33;;;;;;;0.81;100.00;100507.63;5010661;28;20272;-68
2021/01/26 07:21:24;;;;;;;133.05;23.67;;;;;;;0.83;100.00;100513.69;5012669;28;20272;-68
2021/01/26 07:24:12;;;;;;;116.93;20.87;;;;;;;0.78;100.00;100522.94;5016170;28;20022;-67
2021/01/26 07:27:02;;;;;;;101.03;19.73;;;;;;;0.84;100.00;100533.47;5012640;28;20277;-69
2021/01/26 07:29:36;;;;;;;105.77;21.00;;;;;;;0.86;100.00;100537.00;5016830;28;20284;-67
2021/01/26 07:32:16;;;;;;;135.93;23.17;;;;;;;0.87;100.00;100541.31;5010453;28;20538;-66
2021/01/26 07:34:51;;;;;;;140.47;24.43;;;;;;;0.91;100.00;100545.75;5018940;28;20312;-67
2021/01/26 07:37:31;;;;;;;130.93;23.13;;;;;;;0.91;100.00;100543.19;5010715;28;20344;-68
2021/01/26 07:40:03;;;;;;;109.23;20.77;;;;;;;0.88;100.00;100553.38;5019416;28;20315;-66
2021/01/26 07:42:34;;;;;;;118.43;20.88;;;;;;;0.88;100.00;100564.53;5027389;28;20268;-66
2021/01/26 07:45:03;;;;;;;111.27;21.90;;;;;;;0.88;100.00;100568.81;5012966;28;20106;-67
2021/01/26 07:47:36;;;;;;;122.70;22.47;;;;;;;0.88;100.00;100569.69;5017794;28;20280;-67
2021/01/26 07:50:08;;;;;;;125.67;21.93;;;;;;;0.90;100.00;100572.31;5028409;28;20284;-67
2021/01/26 07:52:36;;;;;;;115.10;21.55;;;;;;;0.90;100.00;100581.72;5019766;28;20291;-67
2021/01/26 07:55:12;;;;;;;90.33;19.80;;;;;;;0.86;100.00;100585.91;5015933;28;20079;-67
2021/01/26 07:57:51;;;;;;;96.40;19.80;;;;;;;0.87;100.00;100592.78;5020674;28;20356;-67
2021/01/26 08:00:20;;;;;;;89.73;20.73;;;;;;;0.85;100.00;100600.47;5022483;28;20288;-68
2021/01/26 08:02:52;;;;;;;100.70;18.97;;;;;;;0.84;100.00;100590.06;5032302;28;20794;-67
2021/01/26 08:05:19;;;;;;;84.35;18.98;;;;;;;0.87;100.00;100598.81;5025703;28;20279;-67
2021/01/26 08:07:46;;;;;;;88.30;19.20;;;;;;;0.88;100.00;100605.72;5030313;28;20404;-67
2021/01/26 08:10:24;;;;;;;111.67;22.60;;;;;;;0.88;100.00;100604.84;5025886;28;20713;-68
2021/01/26 08:12:49;;;;;;;86.43;19.50;;;;;;;0.86;100.00;100606.50;5027287;28;20286;-67
2021/01/26 08:15:23;;;;;;;92.33;23.00;;;;;;;0.87;100.00;100618.53;5017119;28;20730;-67
2021/01/26 08:17:49;;;;;;;108.77;23.07;;;;;;;0.84;100.00;100618.38;5016940;28;20030;-67
2021/01/26 08:20:21;;;;;;;104.83;21.80;;;;;;;0.89;100.00;100622.03;5018161;28;20641;-67
2021/01/26 08:23:10;;;;;;;86.43;21.27;;;;;;;0.89;100.00;100624.63;5013683;28;20042;-66
2021/01/26 08:25:40;;;;;;;88.07;19.80;;;;;;;0.83;100.00;100626.94;5028008;28;20272;-68
2021/01/26 08:28:11;;;;;;;91.27;22.87;;;;;;;0.88;100.00;100635.72;5030521;28;20292;-67
2021/01/26 08:30:47;;;;;;;94.23;20.53;;;;;;;0.88;100.00;100635.72;5019500;28;20346;-67
2021/01/26 08:33:18;;;;;;;94.30;21.07;;;;;;;0.93;100.00;100639.34;5019684;28;20291;-67
2021/01/26 08:35:45;;;;;;;81.13;20.03;;;;;;;0.95;100.00;100648.00;5020492;28;20288;-68
2021/01/26 08:38:44;;;;;;;82.00;18.57;;;;;;;0.95;100.00;100658.31;5013704;28;20264;-67
2021/01/26 08:41:09;;;;;;;85.57;19.97;;;;;;;0.90;100.00;100675.28;5018588;28;20288;-68
2021/01/26 08:43:47;;;;;;;80.77;19.40;;;;;;;0.91;100.00;100671.00;5021831;28;20751;-67
2021/01/26 08:46:42;;;;;;;56.00;14.77;;;;;;;0.95;100.00;100678.88;5017443;28;20041;-67
2021/01/26 08:49:23;;;;;;;65.70;17.67;;;;;;;0.98;100.00;100673.88;5026715;28;20380;-68
2021/01/26 08:51:50;;;;;;;66.57;17.93;;;;;;;1.02;100.00;100682.59;5023573;28;20287;-68
2021/01/26 08:54:37;;;;;;;72.70;17.43;;;;;;;1.03;100.00;100685.22;5028614;28;20327;-68
2021/01/26 08:57:19;;;;;;;72.13;19.67;;;;;;;1.07;100.00;100679.38;5012623;28;20597;-68
2021/01/26 08:59:44;;;;;;;63.42;17.63;;;;;;;1.10;100.00;100694.09;5020694;28;20312;-66
2021/01/26 09:02:32;;;;;;;65.13;18.27;;;;;;;1.13;100.00;100695.09;5013185;28;20062;-67
2021/01/26 09:04:58;;;;;;;61.00;16.10;;;;;;;1.09;100.00;100703.50;5023676;28;20030;-68
2021/01/26 09:07:51;;;;;;;60.00;16.93;;;;;;;1.11;100.00;100712.16;5012577;28;20823;-67
2021/01/26 09:10:28;;;;;;;57.37;16.57;;;;;;;1.23;100.00;100705.75;5015202;28;20041;-68
2021/01/26 09:13:04;;;;;;;60.27;16.83;;;;;;;1.26;100.00;100711.00;5024411;28;20299;-68
2021/01/26 09:15:31;;;;;;;68.60;17.63;;;;;;;1.39;100.00;100728.69;5023243;28;20279;-68
2021/01/26 09:17:58;;;;;;;59.00;17.37;;;;;;;1.33;100.00;100719.03;5024575;28;20367;-68
2021/01/26 09:20:27;;;;;;;58.77;17.00;;;;;;;1.38;100.00;100729.50;5012482;28;20673;-67
2021/01/26 09:23:06;;;;;;;54.27;17.13;;;;;;;1.41;100.00;100735.66;5020565;28;20275;-67
2021/01/26 09:25:51;;;;;;;53.00;15.47;;;;;;;1.40;100.00;100735.59;5021844;28;20347;-68
2021/01/26 09:28:22;;;;;;;49.30;14.63;;;;;;;1.45;100.00;100740.13;5016172;28;20268;-67
2021/01/26 09:30:56;;;;;;;52.33;15.30;;;;;;;1.47;100.00;100740.19;5011602;28;20304;-67
2021/01/26 09:33:23;;;;;;;45.60;14.30;;;;;;;1.49;100.00;100737.66;5027724;28;20259;-67
2021/01/26 09:35:54;;;;;;;43.43;14.07;;;;;;;1.57;100.00;100744.84;5029361;28;20285;-67
2021/01/26 09:38:30;;;;;;;42.30;13.53;;;;;;;1.62;100.00;100751.06;5024710;28;20372;-67
2021/01/26 09:41:05;;;;;;;41.67;15.07;;;;;;;1.81;100.00;100756.91;5019839;28;20334;-68
2021/01/26 09:43:35;;;;;;;38.53;13.53;;;;;;;1.77;100.00;100759.38;5011998;28;20807;-67
2021/01/26 09:46:06;;;;;;;42.33;14.07;;;;;;;1.75;100.00;100755.00;5015987;28;20276;-68
2021/01/26 09:48:38;;;;;;;35.23;13.33;;;;;;;1.59;100.00;100755.25;5013476;28;20346;-68
2021/01/26 09:51:14;;;;;;;38.42;13.80;;;;;;;1.39;100.00;100759.59;5015377;28;20273;-68
2021/01/26 09:53:42;;;;;;;34.67;12.07;;;;;;;1.41;100.00;100765.69;5021743;28;20527;-67
2021/01/26 09:56:09;;;;;;;37.33;12.23;;;;;;;1.48;100.00;100764.25;5018649;28;20267;-67
2021/01/26 09:58:35;;;;;;;37.80;12.03;;;;;;;1.48;100.00;100772.84;5024114;28;20324;-68
2021/01/26 10:01:02;;;;;;;34.83;13.43;;;;;;;1.56;100.00;100778.28;5014916;28;20284;-66
2021/01/26 10:03:28;;;;;;;33.90;11.60;;;;;;;1.57;100.00;100774.88;5026083;28;20127;-66
2021/01/26 10:05:59;;;;;;;30.73;11.30;;;;;;;1.66;100.00;100776.13;5011542;28;20287;-67
2021/01/26 10:08:28;;;;;;;32.03;12.33;;;;;;;1.84;100.00;100791.44;5016078;28;20276;-67
2021/01/26 10:10:54;;;;;;;32.43;10.73;;;;;;;1.88;100.00;100795.88;5016199;28;20280;-67
2021/01/26 10:13:32;;;;;;;29.13;10.60;;;;;;;1.89;100.00;100799.31;5023777;28;20312;-67
2021/01/26 10:16:18;;;;;;;30.33;11.33;;;;;;;1.97;100.00;100798.81;5020299;28;20272;-67
2021/01/26 10:18:43;;;;;;;25.30;9.63;;;;;;;2.13;100.00;100802.81;5027490;28;20347;-67
2021/01/26 10:21:13;;;;;;;31.07;10.90;;;;;;;2.39;100.00;100802.88;5023282;28;20288;-67
2021/01/26 10:23:44;;;;;;;24.17;8.77;;;;;;;2.28;100.00;100816.28;5024166;28;20108;-67
2021/01/26 10:26:12;;;;;;;23.87;8.67;;;;;;;2.31;100.00;100819.00;5010800;28;20330;-67
2021/01/26 10:28:58;;;;;;;28.33;9.83;;;;;;;2.47;100.00;100817.84;5012513;28;20305;-66
2021/01/26 10:31:24;;;;;;;26.30;10.03;;;;;;;2.67;100.00;100821.13;5016058;28;20276;-65
2021/01/26 10:33:50;;;;;;;30.70;9.57;;;;;;;2.56;100.00;100827.63;5012578;28;20303;-67
2021/01/26 10:36:22;;;;;;;21.60;7.87;;;;;;;2.47;100.00;100838.47;5017120;28;21661;-65
2021/01/26 10:38:48;;;;;;;23.20;8.43;;;;;;;2.55;100.00;100837.06;5011142;28;20035;-67
2021/01/26 10:41:22;;;;;;;18.87;7.57;;;;;;;2.51;100.00;100831.72;5019605;28;20767;-68
2021/01/26 10:43:48;;;;;;;26.47;8.73;;;;;;;2.80;100.00;100837.94;5024967;28;20033;-68
2021/01/26 10:46:27;;;;;;;23.03;8.43;;;;;;;2.79;100.00;100834.47;5012387;28;20302;-67
2021/01/26 10:48:53;;;;;;;25.77;8.67;;;;;;;2.77;100.00;100838.69;5011236;28;20285;-66
2021/01/26 10:51:37;;;;;;;23.53;8.43;;;;;;;2.83;100.00;100838.91;5013601;28;20291;-67
2021/01/26 10:54:06;;;;;;;24.97;8.00;;;;;;;2.94;100.00;100832.41;5024342;28;20021;-66
2021/01/26 10:56:31;;;;;;;18.70;7.80;;;;;;;2.67;100.00;100820.25;5014222;28;20364;-67
2021/01/26 10:58:57;;;;;;;28.97;8.63;;;;;;;2.69;100.00;100828.94;5013796;28;20734;-67
2021/01/26 11:01:24;;;;;;;23.53;8.17;;;;;;;2.79;100.00;100826.72;5015855;28;20034;-67
2021/01/26 11:03:50;;;;;;;24.20;8.93;;;;;;;2.84;100.00;100835.50;5016406;28;20402;-67
2021/01/26 11:06:17;;;;;;;21.57;7.67;;;;;;;2.80;100.00;100822.44;5019245;28;20351;-67
2021/01/26 11:08:43;;;;;;;18.20;7.67;;;;;;;2.98;100.00;100832.50;5019258;28;20276;-68
2021/01/26 11:11:12;;;;;;;17.90;7.00;;;;;;;3.05;100.00;100822.44;5019931;28;20307;-67
2021/01/26 11:13:38;;;;;;;22.47;7.87;;;;;;;3.23;100.00;100824.75;5022175;28;20699;-66
2021/01/26 11:16:04;;;;;;;21.87;7.50;;;;;;;3.18;100.00;100826.31;5022540;28;20287;-68
2021/01/26 11:18:29;;;;;;;19.63;6.77;;;;;;;2.96;100.00;100836.75;5020079;28;20034;-67
2021/01/26 11:20:54;;;;;;;17.43;6.57;;;;;;;2.98;100.00;100832.50;5023723;28;20029;-68
2021/01/26 11:23:20;;;;;;;18.37;6.83;;;;;;;3.07;100.00;100832.81;5019821;28;20029;-67
2021/01/26 11:25:45;;;;;;;20.20;8.40;;;;;;;3.36;100.00;100836.38;5018583;28;20513;-67
2021/01/26 11:28:11;;;;;;;21.13;7.40;;;;;;;3.58;100.00;100837.94;5018480;28;20083;-67
2021/01/26 11:30:37;;;;;;;19.17;7.03;;;;;;;3.58;100.00;100837.94;5018885;28;20025;-68
2021/01/26 11:33:04;;;;;;;19.50;7.20;;;;;;;3.46;100.00;100838.41;5019028;28;20045;-68
2021/01/26 11:35:30;;;;;;;16.83;6.53;;;;;;;3.23;100.00;100842.84;5019528;28;20033;-68
2021/01/26 11:37:56;;;;;;;16.83;6.93;;;;;;;3.33;100.00;100846.59;5017238;28;20347;-68
2021/01/26 11:40:23;;;;;;;22.43;8.03;;;;;;;3.45;100.00;100847.00;5022824;28;20291;-68